sensor_id;sensor_type;location;lat;lon;timestamp;P1;P2;P0
83235;PMS5003;73121;51.828;-3.098;2023-10-19T00:01:17;4;3;
83235;PMS5003;73121;51.828;-3.098;2023-10-19T00:03:42;5;5;
83235;PMS5003;73121;51.828;-3.098;2023-10-19T00:06:07;5;4;
83235;PMS5003;73121;51.828;-3.098;2023-10-19T00:08:32;3;3;
83235;PMS5003;73121;51.828;-3.098;2023-10-19T00:10:58;3;3;
83235;PMS5003;73121;51.828;-3.098;2023-10-19T00:13:23;4;2;
83235;PMS5003;73121;51.828;-3.098;2023-10-19T00:15:48;1;1;
83235;PMS5003;73121;51.828;-3.098;2023-10-19T00:18:13;1;1;
83235;PMS5003;73121;51.828;-3.098;2023-10-19T00:20:39;2;2;
83235;PMS5003;73121;51.828;-3.098;2023-10-19T00:23:04;1;1;
83235;PMS5003;73121;51.828;-3.098;2023-10-19T00:25:29;3;2;
83235;PMS5003;73121;51.828;-3.098;2023-10-19T00:27:54;4;4;
83235;PMS5003;73121;51.828;-3.098;2023-10-19T00:30:20;6;6;
83235;PMS5003;73121;51.828;-3.098;2023-10-19T00:32:45;7;7;
83235;PMS5003;73121;51.828;-3.098;2023-10-19T00:35:10;10;9;
83235;PMS5003;73121;51.828;-3.098;2023-10-19T00:37:36;9;8;
83235;PMS5003;73121;51.828;-3.098;2023-10-19T00:40:02;9;8;
83235;PMS5003;73121;51.828;-3.098;2023-10-19T00:42:27;8;7;
83235;PMS5003;73121;51.828;-3.098;2023-10-19T00:44:52;7;6;
83235;PMS5003;73121;51.828;-3.098;2023-10-19T00:47:17;7;6;
83235;PMS5003;73121;51.828;-3.098;2023-10-19T00:49:43;6;5;
83235;PMS5003;73121;51.828;-3.098;2023-10-19T00:52:08;8;8;
83235;PMS5003;73121;51.828;-3.098;2023-10-19T00:54:34;8;8;
83235;PMS5003;73121;51.828;-3.098;2023-10-19T00:56:59;11;10;
83235;PMS5003;73121;51.828;-3.098;2023-10-19T00:59:24;7;7;
83235;PMS5003;73121;51.828;-3.098;2023-10-19T01:01:50;6;6;
83235;PMS5003;73121;51.828;-3.098;2023-10-19T01:04:15;8;7;
83235;PMS5003;73121;51.828;-3.098;2023-10-19T01:06:40;8;8;
83235;PMS5003;73121;51.828;-3.098;2023-10-19T01:09:05;7;7;
83235;PMS5003;73121;51.828;-3.098;2023-10-19T01:11:30;10;8;
83235;PMS5003;73121;51.828;-3.098;2023-10-19T01:13:56;7;7;
83235;PMS5003;73121;51.828;-3.098;2023-10-19T01:16:21;6;6;
83235;PMS5003;73121;51.828;-3.098;2023-10-19T01:18:47;8;7;
83235;PMS5003;73121;51.828;-3.098;2023-10-19T01:21:12;10;9;
83235;PMS5003;73121;51.828;-3.098;2023-10-19T01:23:37;10;7;
83235;PMS5003;73121;51.828;-3.098;2023-10-19T01:26:03;10;9;
83235;PMS5003;73121;51.828;-3.098;2023-10-19T01:28:29;11;11;
83235;PMS5003;73121;51.828;-3.098;2023-10-19T01:30:54;13;12;
83235;PMS5003;73121;51.828;-3.098;2023-10-19T01:33:20;10;10;
83235;PMS5003;73121;51.828;-3.098;2023-10-19T01:35:46;11;10;
83235;PMS5003;73121;51.828;-3.098;2023-10-19T01:38:11;11;11;
83235;PMS5003;73121;51.828;-3.098;2023-10-19T01:40:36;12;11;
83235;PMS5003;73121;51.828;-3.098;2023-10-19T01:43:02;10;10;
83235;PMS5003;73121;51.828;-3.098;2023-10-19T01:45:27;12;12;
83235;PMS5003;73121;51.828;-3.098;2023-10-19T01:47:53;9;9;
83235;PMS5003;73121;51.828;-3.098;2023-10-19T01:50:18;11;11;
83235;PMS5003;73121;51.828;-3.098;2023-10-19T01:52:44;12;10;
83235;PMS5003;73121;51.828;-3.098;2023-10-19T01:55:09;10;9;
83235;PMS5003;73121;51.828;-3.098;2023-10-19T01:57:35;13;11;
83235;PMS5003;73121;51.828;-3.098;2023-10-19T02:00:01;15;12;
83235;PMS5003;73121;51.828;-3.098;2023-10-19T02:02:26;10;10;
83235;PMS5003;73121;51.828;-3.098;2023-10-19T02:04:51;12;11;
83235;PMS5003;73121;51.828;-3.098;2023-10-19T02:07:16;16;12;
83235;PMS5003;73121;51.828;-3.098;2023-10-19T02:09:42;11;11;
83235;PMS5003;73121;51.828;-3.098;2023-10-19T02:12:07;10;10;
83235;PMS5003;73121;51.828;-3.098;2023-10-19T02:14:32;10;9;
83235;PMS5003;73121;51.828;-3.098;2023-10-19T02:16:58;11;10;
83235;PMS5003;73121;51.828;-3.098;2023-10-19T02:19:24;9;9;
83235;PMS5003;73121;51.828;-3.098;2023-10-19T02:21:48;12;11;
83235;PMS5003;73121;51.828;-3.098;2023-10-19T02:24:14;10;9;
83235;PMS5003;73121;51.828;-3.098;2023-10-19T02:26:39;7;7;
83235;PMS5003;73121;51.828;-3.098;2023-10-19T02:29:04;9;7;
83235;PMS5003;73121;51.828;-3.098;2023-10-19T02:31:29;4;4;
83235;PMS5003;73121;51.828;-3.098;2023-10-19T02:33:55;5;4;
83235;PMS5003;73121;51.828;-3.098;2023-10-19T02:36:20;5;4;
83235;PMS5003;73121;51.828;-3.098;2023-10-19T02:38:45;2;2;
83235;PMS5003;73121;51.828;-3.098;2023-10-19T02:41:10;4;3;
83235;PMS5003;73121;51.828;-3.098;2023-10-19T02:43:36;2;2;
83235;PMS5003;73121;51.828;-3.098;2023-10-19T02:46:01;2;2;
83235;PMS5003;73121;51.828;-3.098;2023-10-19T02:48:26;3;2;
83235;PMS5003;73121;51.828;-3.098;2023-10-19T02:50:52;3;3;
83235;PMS5003;73121;51.828;-3.098;2023-10-19T02:53:17;2;2;
83235;PMS5003;73121;51.828;-3.098;2023-10-19T02:55:42;5;4;
83235;PMS5003;73121;51.828;-3.098;2023-10-19T02:58:07;3;3;
83235;PMS5003;73121;51.828;-3.098;2023-10-19T03:00:33;3;3;
83235;PMS5003;73121;51.828;-3.098;2023-10-19T03:02:58;3;3;
83235;PMS5003;73121;51.828;-3.098;2023-10-19T03:05:23;1;1;
83235;PMS5003;73121;51.828;-3.098;2023-10-19T03:07:48;3;2;
83235;PMS5003;73121;51.828;-3.098;2023-10-19T03:10:14;3;3;
83235;PMS5003;73121;51.828;-3.098;2023-10-19T03:12:39;2;2;
83235;PMS5003;73121;51.828;-3.098;2023-10-19T03:15:04;4;4;
83235;PMS5003;73121;51.828;-3.098;2023-10-19T03:17:30;6;3;
83235;PMS5003;73121;51.828;-3.098;2023-10-19T03:19:55;3;3;
83235;PMS5003;73121;51.828;-3.098;2023-10-19T03:22:20;6;5;
83235;PMS5003;73121;51.828;-3.098;2023-10-19T03:24:45;4;4;
83235;PMS5003;73121;51.828;-3.098;2023-10-19T03:27:12;4;3;
83235;PMS5003;73121;51.828;-3.098;2023-10-19T03:29:36;2;2;
83235;PMS5003;73121;51.828;-3.098;2023-10-19T03:32:02;3;3;
83235;PMS5003;73121;51.828;-3.098;2023-10-19T03:34:27;5;3;
83235;PMS5003;73121;51.828;-3.098;2023-10-19T03:36:53;5;4;
83235;PMS5003;73121;51.828;-3.098;2023-10-19T03:39:19;5;4;
83235;PMS5003;73121;51.828;-3.098;2023-10-19T03:41:44;5;4;
83235;PMS5003;73121;51.828;-3.098;2023-10-19T03:44:09;9;9;
83235;PMS5003;73121;51.828;-3.098;2023-10-19T03:46:34;8;7;
83235;PMS5003;73121;51.828;-3.098;2023-10-19T03:49:00;16;15;
83235;PMS5003;73121;51.828;-3.098;2023-10-19T03:51:25;12;12;
83235;PMS5003;73121;51.828;-3.098;2023-10-19T03:53:51;11;11;
83235;PMS5003;73121;51.828;-3.098;2023-10-19T03:56:16;12;10;
83235;PMS5003;73121;51.828;-3.098;2023-10-19T03:58:42;16;14;
83235;PMS5003;73121;51.828;-3.098;2023-10-19T04:01:07;15;10;
83235;PMS5003;73121;51.828;-3.098;2023-10-19T04:03:32;11;11;
83235;PMS5003;73121;51.828;-3.098;2023-10-19T04:05:57;11;10;
83235;PMS5003;73121;51.828;-3.098;2023-10-19T04:08:22;10;10;
83235;PMS5003;73121;51.828;-3.098;2023-10-19T04:10:48;12;12;
83235;PMS5003;73121;51.828;-3.098;2023-10-19T04:13:13;13;12;
83235;PMS5003;73121;51.828;-3.098;2023-10-19T04:15:39;8;8;
83235;PMS5003;73121;51.828;-3.098;2023-10-19T04:18:04;10;8;
83235;PMS5003;73121;51.828;-3.098;2023-10-19T04:20:29;10;7;
83235;PMS5003;73121;51.828;-3.098;2023-10-19T04:22:55;6;6;
83235;PMS5003;73121;51.828;-3.098;2023-10-19T04:25:20;10;9;
83235;PMS5003;73121;51.828;-3.098;2023-10-19T04:27:46;7;7;
83235;PMS5003;73121;51.828;-3.098;2023-10-19T04:30:11;10;8;
83235;PMS5003;73121;51.828;-3.098;2023-10-19T04:32:36;6;6;
83235;PMS5003;73121;51.828;-3.098;2023-10-19T04:35:01;6;6;
83235;PMS5003;73121;51.828;-3.098;2023-10-19T04:37:27;8;7;
83235;PMS5003;73121;51.828;-3.098;2023-10-19T04:39:53;8;7;
83235;PMS5003;73121;51.828;-3.098;2023-10-19T04:42:18;4;4;
83235;PMS5003;73121;51.828;-3.098;2023-10-19T04:44:43;4;4;
83235;PMS5003;73121;51.828;-3.098;2023-10-19T04:47:10;6;6;
83235;PMS5003;73121;51.828;-3.098;2023-10-19T04:49:35;7;6;
83235;PMS5003;73121;51.828;-3.098;2023-10-19T04:52:00;6;6;
83235;PMS5003;73121;51.828;-3.098;2023-10-19T04:54:25;6;5;
83235;PMS5003;73121;51.828;-3.098;2023-10-19T04:56:50;5;5;
83235;PMS5003;73121;51.828;-3.098;2023-10-19T04:59:16;4;4;
83235;PMS5003;73121;51.828;-3.098;2023-10-19T05:01:41;3;3;
83235;PMS5003;73121;51.828;-3.098;2023-10-19T05:04:06;3;3;
83235;PMS5003;73121;51.828;-3.098;2023-10-19T05:06:31;5;5;
83235;PMS5003;73121;51.828;-3.098;2023-10-19T05:08:57;4;4;
83235;PMS5003;73121;51.828;-3.098;2023-10-19T05:11:22;5;3;
83235;PMS5003;73121;51.828;-3.098;2023-10-19T05:13:47;3;3;
83235;PMS5003;73121;51.828;-3.098;2023-10-19T05:16:13;5;5;
83235;PMS5003;73121;51.828;-3.098;2023-10-19T05:18:38;4;4;
83235;PMS5003;73121;51.828;-3.098;2023-10-19T05:21:03;5;4;
83235;PMS5003;73121;51.828;-3.098;2023-10-19T05:23:29;5;5;
83235;PMS5003;73121;51.828;-3.098;2023-10-19T05:25:59;4;4;
83235;PMS5003;73121;51.828;-3.098;2023-10-19T05:28:19;5;5;
83235;PMS5003;73121;51.828;-3.098;2023-10-19T05:30:45;6;6;
83235;PMS5003;73121;51.828;-3.098;2023-10-19T05:33:10;5;3;
83235;PMS5003;73121;51.828;-3.098;2023-10-19T05:35:35;3;3;
83235;PMS5003;73121;51.828;-3.098;2023-10-19T05:38:00;4;2;
83235;PMS5003;73121;51.828;-3.098;2023-10-19T05:40:26;3;3;
83235;PMS5003;73121;51.828;-3.098;2023-10-19T05:42:51;2;1;
83235;PMS5003;73121;51.828;-3.098;2023-10-19T05:45:16;1;1;
83235;PMS5003;73121;51.828;-3.098;2023-10-19T05:47:42;3;2;
83235;PMS5003;73121;51.828;-3.098;2023-10-19T05:50:07;2;2;
83235;PMS5003;73121;51.828;-3.098;2023-10-19T05:52:32;3;2;
83235;PMS5003;73121;51.828;-3.098;2023-10-19T05:54:57;3;2;
83235;PMS5003;73121;51.828;-3.098;2023-10-19T05:57:22;3;1;
83235;PMS5003;73121;51.828;-3.098;2023-10-19T05:59:47;2;2;
83235;PMS5003;73121;51.828;-3.098;2023-10-19T06:02:13;4;4;
83235;PMS5003;73121;51.828;-3.098;2023-10-19T06:04:38;2;2;
83235;PMS5003;73121;51.828;-3.098;2023-10-19T06:07:04;2;2;
83235;PMS5003;73121;51.828;-3.098;2023-10-19T06:09:29;2;2;
83235;PMS5003;73121;51.828;-3.098;2023-10-19T06:11:54;2;1;
83235;PMS5003;73121;51.828;-3.098;2023-10-19T06:14:19;3;2;
83235;PMS5003;73121;51.828;-3.098;2023-10-19T06:16:45;2;2;
83235;PMS5003;73121;51.828;-3.098;2023-10-19T06:19:10;2;2;
83235;PMS5003;73121;51.828;-3.098;2023-10-19T06:21:36;6;5;
83235;PMS5003;73121;51.828;-3.098;2023-10-19T06:24:01;3;2;
83235;PMS5003;73121;51.828;-3.098;2023-10-19T06:26:26;5;3;
83235;PMS5003;73121;51.828;-3.098;2023-10-19T06:28:51;2;1;
83235;PMS5003;73121;51.828;-3.098;2023-10-19T06:31:17;3;3;
83235;PMS5003;73121;51.828;-3.098;2023-10-19T06:33:42;4;2;
83235;PMS5003;73121;51.828;-3.098;2023-10-19T06:36:08;5;3;
83235;PMS5003;73121;51.828;-3.098;2023-10-19T06:38:33;5;3;
83235;PMS5003;73121;51.828;-3.098;2023-10-19T06:40:59;3;3;
83235;PMS5003;73121;51.828;-3.098;2023-10-19T06:43:23;2;2;
83235;PMS5003;73121;51.828;-3.098;2023-10-19T06:45:49;3;2;
83235;PMS5003;73121;51.828;-3.098;2023-10-19T06:48:14;5;2;
83235;PMS5003;73121;51.828;-3.098;2023-10-19T06:50:39;3;3;
83235;PMS5003;73121;51.828;-3.098;2023-10-19T06:53:04;3;3;
83235;PMS5003;73121;51.828;-3.098;2023-10-19T06:55:30;3;3;
83235;PMS5003;73121;51.828;-3.098;2023-10-19T06:57:56;4;2;
83235;PMS5003;73121;51.828;-3.098;2023-10-19T07:00:22;3;3;
83235;PMS5003;73121;51.828;-3.098;2023-10-19T07:02:47;5;4;
83235;PMS5003;73121;51.828;-3.098;2023-10-19T07:05:13;2;2;
83235;PMS5003;73121;51.828;-3.098;2023-10-19T07:07:39;5;4;
83235;PMS5003;73121;51.828;-3.098;2023-10-19T07:10:03;4;4;
83235;PMS5003;73121;51.828;-3.098;2023-10-19T07:12:28;4;3;
83235;PMS5003;73121;51.828;-3.098;2023-10-19T07:14:53;4;3;
83235;PMS5003;73121;51.828;-3.098;2023-10-19T07:17:19;5;2;
83235;PMS5003;73121;51.828;-3.098;2023-10-19T07:19:44;7;4;
83235;PMS5003;73121;51.828;-3.098;2023-10-19T07:22:09;4;3;
83235;PMS5003;73121;51.828;-3.098;2023-10-19T07:24:35;6;5;
83235;PMS5003;73121;51.828;-3.098;2023-10-19T07:27:00;9;4;
83235;PMS5003;73121;51.828;-3.098;2023-10-19T07:29:25;6;5;
83235;PMS5003;73121;51.828;-3.098;2023-10-19T07:31:51;4;3;
83235;PMS5003;73121;51.828;-3.098;2023-10-19T07:34:16;4;4;
83235;PMS5003;73121;51.828;-3.098;2023-10-19T07:36:41;8;6;
83235;PMS5003;73121;51.828;-3.098;2023-10-19T07:39:07;7;4;
83235;PMS5003;73121;51.828;-3.098;2023-10-19T07:41:32;13;8;
83235;PMS5003;73121;51.828;-3.098;2023-10-19T07:43:57;9;7;
83235;PMS5003;73121;51.828;-3.098;2023-10-19T07:46:23;13;10;
83235;PMS5003;73121;51.828;-3.098;2023-10-19T07:48:48;9;7;
83235;PMS5003;73121;51.828;-3.098;2023-10-19T07:51:14;10;8;
83235;PMS5003;73121;51.828;-3.098;2023-10-19T07:53:39;12;10;
83235;PMS5003;73121;51.828;-3.098;2023-10-19T07:56:05;5;5;
83235;PMS5003;73121;51.828;-3.098;2023-10-19T07:58:30;6;4;
83235;PMS5003;73121;51.828;-3.098;2023-10-19T08:00:56;6;5;
83235;PMS5003;73121;51.828;-3.098;2023-10-19T08:03:21;7;5;
83235;PMS5003;73121;51.828;-3.098;2023-10-19T08:05:47;4;3;
83235;PMS5003;73121;51.828;-3.098;2023-10-19T08:08:12;3;3;
83235;PMS5003;73121;51.828;-3.098;2023-10-19T08:10:37;8;7;
83235;PMS5003;73121;51.828;-3.098;2023-10-19T08:13:03;4;4;
83235;PMS5003;73121;51.828;-3.098;2023-10-19T08:15:28;7;4;
83235;PMS5003;73121;51.828;-3.098;2023-10-19T08:17:54;7;7;
83235;PMS5003;73121;51.828;-3.098;2023-10-19T08:20:19;5;3;
83235;PMS5003;73121;51.828;-3.098;2023-10-19T08:22:44;7;4;
83235;PMS5003;73121;51.828;-3.098;2023-10-19T08:25:10;5;4;
83235;PMS5003;73121;51.828;-3.098;2023-10-19T08:27:35;3;3;
83235;PMS5003;73121;51.828;-3.098;2023-10-19T08:30:00;8;5;
83235;PMS5003;73121;51.828;-3.098;2023-10-19T08:32:26;5;4;
83235;PMS5003;73121;51.828;-3.098;2023-10-19T08:34:51;9;7;
83235;PMS5003;73121;51.828;-3.098;2023-10-19T08:37:16;12;7;
83235;PMS5003;73121;51.828;-3.098;2023-10-19T08:39:42;5;5;
83235;PMS5003;73121;51.828;-3.098;2023-10-19T08:42:07;8;6;
83235;PMS5003;73121;51.828;-3.098;2023-10-19T08:44:33;6;5;
83235;PMS5003;73121;51.828;-3.098;2023-10-19T08:46:58;9;4;
83235;PMS5003;73121;51.828;-3.098;2023-10-19T08:49:23;8;6;
83235;PMS5003;73121;51.828;-3.098;2023-10-19T08:51:49;4;3;
83235;PMS5003;73121;51.828;-3.098;2023-10-19T08:54:14;7;4;
83235;PMS5003;73121;51.828;-3.098;2023-10-19T08:56:40;5;4;
83235;PMS5003;73121;51.828;-3.098;2023-10-19T08:59:05;6;3;
83235;PMS5003;73121;51.828;-3.098;2023-10-19T09:01:31;5;4;
83235;PMS5003;73121;51.828;-3.098;2023-10-19T09:03:56;8;4;
83235;PMS5003;73121;51.828;-3.098;2023-10-19T09:06:22;7;5;
83235;PMS5003;73121;51.828;-3.098;2023-10-19T09:08:47;3;2;
83235;PMS5003;73121;51.828;-3.098;2023-10-19T09:11:12;8;3;
83235;PMS5003;73121;51.828;-3.098;2023-10-19T09:13:46;6;5;
83235;PMS5003;73121;51.828;-3.098;2023-10-19T09:16:04;5;5;
83235;PMS5003;73121;51.828;-3.098;2023-10-19T09:18:29;6;3;
83235;PMS5003;73121;51.828;-3.098;2023-10-19T09:20:54;7;5;
83235;PMS5003;73121;51.828;-3.098;2023-10-19T09:23:20;8;5;
83235;PMS5003;73121;51.828;-3.098;2023-10-19T09:25:45;6;4;
83235;PMS5003;73121;51.828;-3.098;2023-10-19T09:28:11;3;3;
83235;PMS5003;73121;51.828;-3.098;2023-10-19T09:30:36;5;5;
83235;PMS5003;73121;51.828;-3.098;2023-10-19T09:33:02;5;4;
83235;PMS5003;73121;51.828;-3.098;2023-10-19T09:35:27;5;3;
83235;PMS5003;73121;51.828;-3.098;2023-10-19T09:37:53;5;4;
83235;PMS5003;73121;51.828;-3.098;2023-10-19T09:40:18;7;6;
83235;PMS5003;73121;51.828;-3.098;2023-10-19T09:42:44;5;4;
83235;PMS5003;73121;51.828;-3.098;2023-10-19T09:45:09;3;3;
83235;PMS5003;73121;51.828;-3.098;2023-10-19T09:47:34;5;4;
83235;PMS5003;73121;51.828;-3.098;2023-10-19T09:50:00;8;7;
83235;PMS5003;73121;51.828;-3.098;2023-10-19T09:52:26;5;4;
83235;PMS5003;73121;51.828;-3.098;2023-10-19T09:54:54;5;5;
83235;PMS5003;73121;51.828;-3.098;2023-10-19T09:57:18;7;5;
83235;PMS5003;73121;51.828;-3.098;2023-10-19T09:59:45;5;5;
83235;PMS5003;73121;51.828;-3.098;2023-10-19T10:02:08;9;6;
83235;PMS5003;73121;51.828;-3.098;2023-10-19T10:04:33;7;4;
83235;PMS5003;73121;51.828;-3.098;2023-10-19T10:06:58;7;6;
83235;PMS5003;73121;51.828;-3.098;2023-10-19T10:09:24;9;5;
83235;PMS5003;73121;51.828;-3.098;2023-10-19T10:11:49;7;5;
83235;PMS5003;73121;51.828;-3.098;2023-10-19T10:14:19;8;5;
83235;PMS5003;73121;51.828;-3.098;2023-10-19T10:16:39;7;4;
83235;PMS5003;73121;51.828;-3.098;2023-10-19T10:19:05;5;4;
83235;PMS5003;73121;51.828;-3.098;2023-10-19T10:21:30;4;4;
83235;PMS5003;73121;51.828;-3.098;2023-10-19T10:23:56;9;8;
83235;PMS5003;73121;51.828;-3.098;2023-10-19T10:26:21;7;5;
83235;PMS5003;73121;51.828;-3.098;2023-10-19T10:28:47;9;8;
83235;PMS5003;73121;51.828;-3.098;2023-10-19T10:31:13;10;7;
83235;PMS5003;73121;51.828;-3.098;2023-10-19T10:33:37;5;5;
83235;PMS5003;73121;51.828;-3.098;2023-10-19T10:36:03;11;8;
83235;PMS5003;73121;51.828;-3.098;2023-10-19T10:38:27;5;4;
83235;PMS5003;73121;51.828;-3.098;2023-10-19T10:40:53;9;6;
83235;PMS5003;73121;51.828;-3.098;2023-10-19T10:43:19;13;7;
83235;PMS5003;73121;51.828;-3.098;2023-10-19T10:45:44;7;5;
83235;PMS5003;73121;51.828;-3.098;2023-10-19T10:48:11;7;5;
83235;PMS5003;73121;51.828;-3.098;2023-10-19T10:50:35;4;2;
83235;PMS5003;73121;51.828;-3.098;2023-10-19T10:53:01;3;3;
83235;PMS5003;73121;51.828;-3.098;2023-10-19T10:55:26;4;3;
83235;PMS5003;73121;51.828;-3.098;2023-10-19T10:57:51;3;3;
83235;PMS5003;73121;51.828;-3.098;2023-10-19T11:00:16;2;2;
83235;PMS5003;73121;51.828;-3.098;2023-10-19T11:02:42;4;3;
83235;PMS5003;73121;51.828;-3.098;2023-10-19T11:05:07;8;6;
83235;PMS5003;73121;51.828;-3.098;2023-10-19T11:07:32;8;4;
83235;PMS5003;73121;51.828;-3.098;2023-10-19T11:09:57;4;3;
83235;PMS5003;73121;51.828;-3.098;2023-10-19T11:12:23;4;3;
83235;PMS5003;73121;51.828;-3.098;2023-10-19T11:14:51;7;5;
83235;PMS5003;73121;51.828;-3.098;2023-10-19T11:17:13;6;4;
83235;PMS5003;73121;51.828;-3.098;2023-10-19T11:19:38;5;5;
83235;PMS5003;73121;51.828;-3.098;2023-10-19T11:22:03;4;3;
83235;PMS5003;73121;51.828;-3.098;2023-10-19T11:24:28;6;5;
83235;PMS5003;73121;51.828;-3.098;2023-10-19T11:26:54;5;4;
83235;PMS5003;73121;51.828;-3.098;2023-10-19T11:29:19;4;4;
83235;PMS5003;73121;51.828;-3.098;2023-10-19T11:31:56;8;6;
83235;PMS5003;73121;51.828;-3.098;2023-10-19T11:34:10;11;5;
83235;PMS5003;73121;51.828;-3.098;2023-10-19T11:36:36;7;5;
83235;PMS5003;73121;51.828;-3.098;2023-10-19T11:39:01;12;5;
83235;PMS5003;73121;51.828;-3.098;2023-10-19T11:41:26;7;4;
83235;PMS5003;73121;51.828;-3.098;2023-10-19T11:43:51;11;6;
83235;PMS5003;73121;51.828;-3.098;2023-10-19T11:46:17;4;4;
83235;PMS5003;73121;51.828;-3.098;2023-10-19T11:48:42;8;7;
83235;PMS5003;73121;51.828;-3.098;2023-10-19T11:51:08;9;7;
83235;PMS5003;73121;51.828;-3.098;2023-10-19T11:53:33;8;6;
83235;PMS5003;73121;51.828;-3.098;2023-10-19T11:55:59;6;4;
83235;PMS5003;73121;51.828;-3.098;2023-10-19T11:58:23;6;5;
83235;PMS5003;73121;51.828;-3.098;2023-10-19T12:00:49;2;2;
83235;PMS5003;73121;51.828;-3.098;2023-10-19T12:03:14;5;5;
83235;PMS5003;73121;51.828;-3.098;2023-10-19T12:05:39;7;4;
83235;PMS5003;73121;51.828;-3.098;2023-10-19T12:08:04;5;5;
83235;PMS5003;73121;51.828;-3.098;2023-10-19T12:10:30;18;16;
83235;PMS5003;73121;51.828;-3.098;2023-10-19T12:12:55;5;5;
83235;PMS5003;73121;51.828;-3.098;2023-10-19T12:15:20;6;6;
83235;PMS5003;73121;51.828;-3.098;2023-10-19T12:17:45;6;5;
83235;PMS5003;73121;51.828;-3.098;2023-10-19T12:20:11;4;4;
83235;PMS5003;73121;51.828;-3.098;2023-10-19T12:22:36;8;6;
83235;PMS5003;73121;51.828;-3.098;2023-10-19T12:25:01;7;5;
83235;PMS5003;73121;51.828;-3.098;2023-10-19T12:27:27;7;7;
83235;PMS5003;73121;51.828;-3.098;2023-10-19T12:29:52;5;4;
83235;PMS5003;73121;51.828;-3.098;2023-10-19T12:32:17;7;5;
83235;PMS5003;73121;51.828;-3.098;2023-10-19T12:34:43;7;6;
83235;PMS5003;73121;51.828;-3.098;2023-10-19T12:37:09;9;7;
83235;PMS5003;73121;51.828;-3.098;2023-10-19T12:39:34;5;3;
83235;PMS5003;73121;51.828;-3.098;2023-10-19T12:41:59;7;5;
83235;PMS5003;73121;51.828;-3.098;2023-10-19T12:44:24;5;5;
83235;PMS5003;73121;51.828;-3.098;2023-10-19T12:46:49;11;7;
83235;PMS5003;73121;51.828;-3.098;2023-10-19T12:49:14;8;5;
83235;PMS5003;73121;51.828;-3.098;2023-10-19T12:51:40;6;5;
83235;PMS5003;73121;51.828;-3.098;2023-10-19T12:54:05;7;5;
83235;PMS5003;73121;51.828;-3.098;2023-10-19T12:56:30;11;8;
83235;PMS5003;73121;51.828;-3.098;2023-10-19T12:58:55;9;7;
83235;PMS5003;73121;51.828;-3.098;2023-10-19T13:01:21;7;5;
83235;PMS5003;73121;51.828;-3.098;2023-10-19T13:03:46;3;3;
83235;PMS5003;73121;51.828;-3.098;2023-10-19T13:06:11;8;7;
83235;PMS5003;73121;51.828;-3.098;2023-10-19T13:08:37;6;5;
83235;PMS5003;73121;51.828;-3.098;2023-10-19T13:11:02;3;3;
83235;PMS5003;73121;51.828;-3.098;2023-10-19T13:13:27;4;4;
83235;PMS5003;73121;51.828;-3.098;2023-10-19T13:15:53;3;3;
83235;PMS5003;73121;51.828;-3.098;2023-10-19T13:18:18;6;5;
83235;PMS5003;73121;51.828;-3.098;2023-10-19T13:20:43;5;4;
83235;PMS5003;73121;51.828;-3.098;2023-10-19T13:23:08;4;2;
83235;PMS5003;73121;51.828;-3.098;2023-10-19T13:25:33;6;2;
83235;PMS5003;73121;51.828;-3.098;2023-10-19T13:27:59;5;4;
83235;PMS5003;73121;51.828;-3.098;2023-10-19T13:30:24;12;6;
83235;PMS5003;73121;51.828;-3.098;2023-10-19T13:32:49;18;12;
83235;PMS5003;73121;51.828;-3.098;2023-10-19T13:35:15;15;13;
83235;PMS5003;73121;51.828;-3.098;2023-10-19T13:37:40;4;3;
83235;PMS5003;73121;51.828;-3.098;2023-10-19T13:40:06;2;2;
83235;PMS5003;73121;51.828;-3.098;2023-10-19T13:42:31;3;2;
83235;PMS5003;73121;51.828;-3.098;2023-10-19T13:44:56;4;2;
83235;PMS5003;73121;51.828;-3.098;2023-10-19T13:47:21;3;3;
83235;PMS5003;73121;51.828;-3.098;2023-10-19T13:49:47;5;4;
83235;PMS5003;73121;51.828;-3.098;2023-10-19T13:52:12;3;3;
83235;PMS5003;73121;51.828;-3.098;2023-10-19T13:54:37;6;4;
83235;PMS5003;73121;51.828;-3.098;2023-10-19T13:57:02;3;2;
83235;PMS5003;73121;51.828;-3.098;2023-10-19T13:59:28;4;3;
83235;PMS5003;73121;51.828;-3.098;2023-10-19T14:01:53;2;2;
83235;PMS5003;73121;51.828;-3.098;2023-10-19T14:04:18;5;5;
83235;PMS5003;73121;51.828;-3.098;2023-10-19T14:06:43;4;3;
83235;PMS5003;73121;51.828;-3.098;2023-10-19T14:09:08;3;3;
83235;PMS5003;73121;51.828;-3.098;2023-10-19T14:11:34;5;3;
83235;PMS5003;73121;51.828;-3.098;2023-10-19T14:13:59;5;5;
83235;PMS5003;73121;51.828;-3.098;2023-10-19T14:16:24;5;4;
83235;PMS5003;73121;51.828;-3.098;2023-10-19T14:18:49;4;3;
83235;PMS5003;73121;51.828;-3.098;2023-10-19T14:21:16;8;4;
83235;PMS5003;73121;51.828;-3.098;2023-10-19T14:23:40;5;5;
83235;PMS5003;73121;51.828;-3.098;2023-10-19T14:26:06;4;4;
83235;PMS5003;73121;51.828;-3.098;2023-10-19T14:28:31;7;4;
83235;PMS5003;73121;51.828;-3.098;2023-10-19T14:30:56;9;6;
83235;PMS5003;73121;51.828;-3.098;2023-10-19T14:33:22;8;7;
83235;PMS5003;73121;51.828;-3.098;2023-10-19T14:35:47;10;5;
83235;PMS5003;73121;51.828;-3.098;2023-10-19T14:38:13;5;4;
83235;PMS5003;73121;51.828;-3.098;2023-10-19T14:40:38;8;6;
83235;PMS5003;73121;51.828;-3.098;2023-10-19T14:43:03;9;5;
83235;PMS5003;73121;51.828;-3.098;2023-10-19T14:45:29;7;7;
83235;PMS5003;73121;51.828;-3.098;2023-10-19T14:47:55;6;5;
83235;PMS5003;73121;51.828;-3.098;2023-10-19T14:50:20;7;5;
83235;PMS5003;73121;51.828;-3.098;2023-10-19T14:52:45;7;5;
83235;PMS5003;73121;51.828;-3.098;2023-10-19T14:55:10;4;4;
83235;PMS5003;73121;51.828;-3.098;2023-10-19T14:57:36;5;4;
83235;PMS5003;73121;51.828;-3.098;2023-10-19T15:00:01;7;5;
83235;PMS5003;73121;51.828;-3.098;2023-10-19T15:02:26;4;4;
83235;PMS5003;73121;51.828;-3.098;2023-10-19T15:04:51;4;3;
83235;PMS5003;73121;51.828;-3.098;2023-10-19T15:07:16;5;4;
83235;PMS5003;73121;51.828;-3.098;2023-10-19T15:09:41;6;4;
83235;PMS5003;73121;51.828;-3.098;2023-10-19T15:12:06;4;4;
83235;PMS5003;73121;51.828;-3.098;2023-10-19T15:14:32;5;5;
83235;PMS5003;73121;51.828;-3.098;2023-10-19T15:16:57;7;4;
83235;PMS5003;73121;51.828;-3.098;2023-10-19T15:19:22;7;4;
83235;PMS5003;73121;51.828;-3.098;2023-10-19T15:21:47;4;4;
83235;PMS5003;73121;51.828;-3.098;2023-10-19T15:24:12;6;4;
83235;PMS5003;73121;51.828;-3.098;2023-10-19T15:26:37;5;3;
83235;PMS5003;73121;51.828;-3.098;2023-10-19T15:29:03;5;4;
83235;PMS5003;73121;51.828;-3.098;2023-10-19T15:31:28;8;6;
83235;PMS5003;73121;51.828;-3.098;2023-10-19T15:33:53;4;3;
83235;PMS5003;73121;51.828;-3.098;2023-10-19T15:36:19;3;2;
83235;PMS5003;73121;51.828;-3.098;2023-10-19T15:38:44;4;2;
83235;PMS5003;73121;51.828;-3.098;2023-10-19T15:41:09;6;5;
83235;PMS5003;73121;51.828;-3.098;2023-10-19T15:43:35;7;5;
83235;PMS5003;73121;51.828;-3.098;2023-10-19T15:46:00;5;4;
83235;PMS5003;73121;51.828;-3.098;2023-10-19T15:48:26;6;5;
83235;PMS5003;73121;51.828;-3.098;2023-10-19T15:50:51;4;2;
83235;PMS5003;73121;51.828;-3.098;2023-10-19T15:53:17;4;4;
83235;PMS5003;73121;51.828;-3.098;2023-10-19T15:55:42;8;6;
83235;PMS5003;73121;51.828;-3.098;2023-10-19T15:58:08;7;7;
83235;PMS5003;73121;51.828;-3.098;2023-10-19T16:00:33;9;7;
83235;PMS5003;73121;51.828;-3.098;2023-10-19T16:02:59;12;8;
83235;PMS5003;73121;51.828;-3.098;2023-10-19T16:05:24;10;8;
83235;PMS5003;73121;51.828;-3.098;2023-10-19T16:07:49;7;7;
83235;PMS5003;73121;51.828;-3.098;2023-10-19T16:10:15;8;7;
83235;PMS5003;73121;51.828;-3.098;2023-10-19T16:12:41;7;6;
83235;PMS5003;73121;51.828;-3.098;2023-10-19T16:15:06;6;6;
83235;PMS5003;73121;51.828;-3.098;2023-10-19T16:17:32;8;7;